Main page
METAR-TAF:

METAR-TAF

Airports :

Odessa International Airport

Odessa, Ukraine

latitude: 46-26N, longitude: 030-46E, elevation: 42 m

Current weather observation

The report was made 32 minutes ago, at 06:30 UTC
Wind 8 kt from the North/Northeast, varying between North and Northeast
Temperature 26°C
Humidity 37%
Pressure 1014 hPa
Visibility 10 km or more
no clouds below 1500 m and no cumulonimbus

METAR: UKOO 190630Z 03004MPS 350V050 CAVOK 26/10 Q1014 R34/090060 NOSIG

Time: 10:02 (07:02 UTC)

Forecast

The report was made 2 hours and 2 minutes ago, at 05:00 UTC
Forecast valid from 19 at 06 UTC to 20 at 06 UTC
Wind 6 kt from the Northeast
Visibility: 6000 m
Scattered clouds at a height of 1500 ft
Scattered clouds at a height of 2000 ft, Cumulonimbus.
Temporary
from 19 at 08 UTC to 19 at 15 UTC
Wind 6 kt from the East/Southeast

TAF: UKOO 190500Z 1906/2006 05003MPS 6000 SCT015 SCT020CB TX31/1912Z TN21/2002Z TEMPO 1908/1915 12003MPS

Weather observations and forecasts of more than 4000 airports (METAR and TAF reports).

The available stations are represented by yellow and red dots on the map.

Hover mouse over dot to see the name of the station.

Then click to see weather observations and forecasts.

To change the map : click on the green buttons with a black cross to zoom in, on the green button with a dash to zoom out, or on the green arrows for adjacent maps.


METAR-TAF: